Time;durP1;ratioP1;P1;durP2;ratioP2;P2;SDS_P1;SDS_P2;PMS_P1;PMS_P2;Temp;Humidity;BMP_temperature;BMP_pressure;BME280_temperature;BME280_humidity;BME280_pressure;Samples;Min_cycle;Max_cycle;Signal;HPM_P1;HPM_P2
2023/01/22 00:01:46;;;;;;;6.50;1.80;;;0.40;76.10;;;;;;4144268;28;20026;-86
2023/01/22 00:04:08;;;;;;;6.00;1.52;;;0.30;76.20;;;;;;4154029;28;20147;-86
2023/01/22 00:06:29;;;;;;;3.63;1.63;;;0.30;76.30;;;;;;4157006;28;20029;-86
2023/01/22 00:08:52;;;;;;;3.10;1.60;;;0.30;76.40;;;;;;4155761;28;20120;-86
2023/01/22 00:11:14;;;;;;;13.45;2.13;;;0.30;76.40;;;;;;4128838;28;20026;-86
2023/01/22 00:13:34;;;;;;;4.47;1.42;;;0.30;76.40;;;;;;4132220;28;20029;-86
2023/01/22 00:15:58;;;;;;;5.93;2.00;;;0.30;76.70;;;;;;4132725;28;20031;-87
2023/01/22 00:18:19;;;;;;;4.97;2.53;;;0.20;77.20;;;;;;4136443;28;20052;-85
2023/01/22 00:20:40;;;;;;;6.28;2.10;;;0.30;77.30;;;;;;4147180;28;20029;-86
2023/01/22 00:22:59;;;;;;;8.63;2.28;;;0.20;77.20;;;;;;4153869;28;20040;-87
2023/01/22 00:25:18;;;;;;;7.70;2.10;;;0.30;78.10;;;;;;4153389;28;20068;-86
2023/01/22 00:27:37;;;;;;;4.93;2.03;;;0.30;77.30;;;;;;4155487;28;20079;-86
2023/01/22 00:29:57;;;;;;;7.03;2.33;;;0.30;77.10;;;;;;4157756;28;20628;-85
2023/01/22 00:32:16;;;;;;;8.18;2.40;;;0.30;77.20;;;;;;4150999;28;20040;-86
2023/01/22 00:34:35;;;;;;;9.57;2.70;;;0.30;78.10;;;;;;4150758;28;20083;-86
2023/01/22 00:36:54;;;;;;;2.75;1.60;;;0.30;77.30;;;;;;4140146;28;20117;-86
2023/01/22 00:39:14;;;;;;;7.22;2.78;;;0.30;77.50;;;;;;4151575;28;20064;-85
2023/01/22 00:41:16;;;;;;;4.57;2.70;;;0.20;77.60;;;;;;4147776;28;20820;-86
2023/01/22 00:43:16;;;;;;;7.47;2.58;;;0.30;77.60;;;;;;4135419;28;20026;-86
2023/01/22 00:45:17;;;;;;;5.07;2.45;;;0.20;77.60;;;;;;4136687;28;20133;-88
2023/01/22 00:47:18;;;;;;;4.28;2.42;;;0.30;77.70;;;;;;4144360;28;20038;-87
2023/01/22 00:49:18;;;;;;;3.70;2.53;;;0.30;77.50;;;;;;4151929;28;20111;-87
2023/01/22 00:51:19;;;;;;;6.90;2.58;;;0.30;77.50;;;;;;4155680;28;20029;-87
2023/01/22 00:53:19;;;;;;;4.88;2.58;;;0.30;77.50;;;;;;4156831;28;20456;-87
2023/01/22 00:55:20;;;;;;;5.28;2.60;;;0.30;77.50;;;;;;4119594;28;21668;-88
2023/01/22 00:57:20;;;;;;;4.65;2.45;;;0.30;77.40;;;;;;4150051;28;20025;-88
2023/01/22 00:59:21;;;;;;;6.10;2.42;;;0.30;77.30;;;;;;4153620;28;20022;-89
2023/01/22 01:01:22;;;;;;;7.75;2.75;;;0.30;76.90;;;;;;4120229;28;20035;-88
2023/01/22 01:03:25;;;;;;;6.15;2.40;;;0.30;76.80;;;;;;4140456;28;20030;-87
2023/01/22 01:05:26;;;;;;;5.63;2.40;;;0.30;77.30;;;;;;4157083;28;20026;-87
2023/01/22 01:07:26;;;;;;;5.30;2.50;;;0.30;76.90;;;;;;4128355;28;20041;-87
2023/01/22 01:09:27;;;;;;;4.40;2.40;;;0.20;76.80;;;;;;4154126;28;20021;-87
2023/01/22 01:11:29;;;;;;;5.53;2.53;;;0.30;76.70;;;;;;4119645;28;20057;-87
2023/01/22 01:13:32;;;;;;;7.38;2.47;;;0.30;76.60;;;;;;4156298;28;20055;-87
2023/01/22 01:15:33;;;;;;;10.32;2.28;;;0.30;76.30;;;;;;4138004;28;20425;-87
2023/01/22 01:17:35;;;;;;;6.05;2.30;;;0.30;76.20;;;;;;4137986;28;20641;-86
2023/01/22 01:19:35;;;;;;;3.95;2.30;;;0.30;76.10;;;;;;4137351;28;20026;-86
2023/01/22 01:21:37;;;;;;;4.65;2.22;;;0.40;76.10;;;;;;4152328;28;20018;-86
2023/01/22 01:23:38;;;;;;;3.90;1.60;;;0.40;75.90;;;;;;4130830;28;20074;-87
2023/01/22 01:25:41;;;;;;;5.93;2.30;;;0.40;75.50;;;;;;4129833;28;20390;-86
2023/01/22 01:27:41;;;;;;;6.57;2.20;;;0.40;75.40;;;;;;4151986;28;20442;-87
2023/01/22 01:29:42;;;;;;;6.55;2.40;;;0.40;75.20;;;;;;4120862;28;20029;-86
2023/01/22 01:31:43;;;;;;;4.97;2.30;;;0.40;74.80;;;;;;4136033;28;20022;-86
2023/01/22 01:33:44;;;;;;;6.82;2.22;;;0.40;74.50;;;;;;4133798;28;20372;-87
2023/01/22 01:35:44;;;;;;;4.57;2.22;;;0.30;74.40;;;;;;4134237;28;20030;-87
2023/01/22 01:37:45;;;;;;;3.42;2.05;;;0.40;74.50;;;;;;4131543;28;20029;-87
2023/01/22 01:39:46;;;;;;;5.28;2.10;;;0.40;74.50;;;;;;4152710;28;20075;-87
2023/01/22 01:41:47;;;;;;;4.43;1.90;;;0.30;74.50;;;;;;4139164;28;20245;-87
2023/01/22 01:44:13;;;;;;;4.30;2.22;;;0.40;74.60;;;;;;4152025;28;20033;-86
2023/01/22 01:46:38;;;;;;;4.60;2.33;;;0.40;74.50;;;;;;4153446;28;20029;-87
2023/01/22 01:48:59;;;;;;;6.30;2.15;;;0.40;74.30;;;;;;4132377;28;20038;-87
2023/01/22 01:51:27;;;;;;;5.32;2.35;;;0.30;74.00;;;;;;4154693;28;20553;-87
2023/01/22 01:53:50;;;;;;;3.70;2.00;;;0.30;73.90;;;;;;4153455;28;20561;-87
2023/01/22 01:56:30;;;;;;;4.28;2.15;;;0.20;74.00;;;;;;4156607;28;20520;-88
2023/01/22 01:58:57;;;;;;;4.50;2.67;;;0.30;74.00;;;;;;4151071;28;20543;-89
2023/01/22 02:01:19;;;;;;;7.72;2.88;;;0.30;74.10;;;;;;4140067;28;20120;-88
2023/01/22 02:03:40;;;;;;;4.00;2.58;;;0.30;74.30;;;;;;4139440;28;20548;-88
2023/01/22 02:06:01;;;;;;;3.67;2.30;;;0.30;74.50;;;;;;4160432;28;20544;-87
2023/01/22 02:08:22;;;;;;;7.55;2.33;;;0.30;74.60;;;;;;4157166;28;20532;-88
2023/01/22 02:10:43;;;;;;;5.13;2.80;;;0.30;74.80;;;;;;4134462;28;20557;-87
2023/01/22 02:13:14;;;;;;;6.70;2.58;;;0.30;74.70;;;;;;4144368;28;20037;-88
2023/01/22 02:15:38;;;;;;;5.50;2.88;;;0.40;74.80;;;;;;4153858;28;20800;-87
2023/01/22 02:17:39;;;;;;;10.07;3.38;;;0.30;74.60;;;;;;4115658;28;20035;-88
2023/01/22 02:19:42;;;;;;;4.85;2.47;;;0.30;74.80;;;;;;4137023;28;20105;-88
2023/01/22 02:21:44;;;;;;;7.13;2.80;;;0.30;75.00;;;;;;4131550;28;20049;-87
2023/01/22 02:23:45;;;;;;;4.43;2.70;;;0.20;75.10;;;;;;4158251;28;20027;-87
2023/01/22 02:25:45;;;;;;;5.15;2.90;;;0.30;75.10;;;;;;4152977;28;20068;-87
2023/01/22 02:27:46;;;;;;;7.43;2.88;;;0.40;75.20;;;;;;4141277;28;20033;-88
2023/01/22 02:29:47;;;;;;;4.22;2.42;;;0.20;75.10;;;;;;4154471;28;20025;-88
2023/01/22 02:31:48;;;;;;;5.55;2.80;;;0.30;75.10;;;;;;4116777;28;20035;-88
2023/01/22 02:33:49;;;;;;;4.32;2.47;;;0.30;75.00;;;;;;4159218;28;20029;-88
2023/01/22 02:35:49;;;;;;;4.15;2.47;;;0.30;74.80;;;;;;4139353;28;20022;-86
2023/01/22 02:37:50;;;;;;;3.75;2.80;;;0.20;74.60;;;;;;4139184;28;20036;-87
2023/01/22 02:39:50;;;;;;;4.10;2.40;;;0.20;74.60;;;;;;4155056;28;20037;-88
2023/01/22 02:41:51;;;;;;;6.13;2.50;;;0.20;74.70;;;;;;4153592;28;20078;-87
2023/01/22 02:43:52;;;;;;;6.28;2.78;;;0.10;74.60;;;;;;4160238;28;20033;-88
2023/01/22 02:45:53;;;;;;;6.60;3.03;;;0.20;74.80;;;;;;4152619;28;20044;-88
2023/01/22 02:47:54;;;;;;;5.45;2.60;;;0.10;74.90;;;;;;4156387;28;20036;-87
2023/01/22 02:49:55;;;;;;;10.32;2.70;;;0.10;75.10;;;;;;4141589;28;20065;-88
2023/01/22 02:51:55;;;;;;;4.07;2.40;;;0.10;75.20;;;;;;4151422;28;20069;-87
2023/01/22 02:53:57;;;;;;;4.65;2.33;;;0.10;75.20;;;;;;4158769;28;20375;-88
2023/01/22 02:55:57;;;;;;;6.57;2.38;;;0.10;75.10;;;;;;4158997;28;20744;-87
2023/01/22 02:58:18;;;;;;;4.70;2.85;;;0.10;75.10;;;;;;4154370;28;20040;-87
2023/01/22 03:00:38;;;;;;;6.55;2.35;;;0.20;75.20;;;;;;4139475;28;20052;-87
2023/01/22 03:02:59;;;;;;;3.40;2.20;;;0.10;75.30;;;;;;4155496;28;20232;-88
2023/01/22 03:05:20;;;;;;;8.15;2.40;;;0.20;75.30;;;;;;4139277;28;20062;-87
2023/01/22 03:07:41;;;;;;;6.68;2.83;;;0.10;75.30;;;;;;4150190;28;20125;-87
2023/01/22 03:10:01;;;;;;;5.45;2.58;;;0.20;75.30;;;;;;4144654;28;20030;-88
2023/01/22 03:12:22;;;;;;;4.78;2.50;;;0.30;75.30;;;;;;4152181;28;20119;-87
2023/01/22 03:22:41;;;;;;;6.55;2.40;;;0.20;75.60;;;;;;4159841;28;20022;-88
2023/01/22 03:25:01;;;;;;;5.78;2.47;;;0.20;75.50;;;;;;4156242;28;20158;-87
2023/01/22 03:27:02;;;;;;;8.27;2.70;;;0.30;75.60;;;;;;4144625;28;20077;-88
2023/01/22 03:29:03;;;;;;;7.70;2.90;;;0.20;75.70;;;;;;4158846;28;20532;-87
2023/01/22 03:31:04;;;;;;;5.47;2.30;;;0.10;75.70;;;;;;4138898;28;20060;-88
2023/01/22 03:33:05;;;;;;;7.25;2.60;;;0.20;75.70;;;;;;4139983;28;20132;-87
2023/01/22 03:35:06;;;;;;;5.57;2.20;;;0.20;75.60;;;;;;4147012;28;20398;-87
2023/01/22 03:37:08;;;;;;;3.95;2.28;;;0.10;75.60;;;;;;4117277;28;20031;-88
2023/01/22 03:39:09;;;;;;;5.28;2.42;;;0.10;75.60;;;;;;4155442;28;20051;-87
2023/01/22 03:41:13;;;;;;;5.78;2.85;;;0.20;75.60;;;;;;4131909;28;20034;-87
2023/01/22 03:43:14;;;;;;;6.57;2.70;;;0.10;75.70;;;;;;4140466;28;20034;-88
2023/01/22 03:45:14;;;;;;;8.60;2.80;;;0.10;75.80;;;;;;4139084;28;20017;-87
2023/01/22 03:47:16;;;;;;;8.35;2.75;;;0.10;75.80;;;;;;4140028;28;20038;-88
2023/01/22 03:49:17;;;;;;;5.80;2.70;;;0.10;75.90;;;;;;4112769;28;20034;-87
2023/01/22 03:51:18;;;;;;;6.97;2.60;;;0.10;75.70;;;;;;4136217;28;20040;-88
2023/01/22 03:53:19;;;;;;;5.28;2.20;;;0.10;75.80;;;;;;4157422;28;20100;-87
2023/01/22 03:55:19;;;;;;;4.07;2.50;;;0.00;75.60;;;;;;4150846;28;20053;-88
2023/01/22 03:57:20;;;;;;;8.27;2.63;;;0.10;75.60;;;;;;4132954;28;20022;-87
2023/01/22 03:59:21;;;;;;;3.95;2.80;;;0.20;75.60;;;;;;4156591;28;20063;-88
2023/01/22 04:01:24;;;;;;;6.05;2.58;;;0.10;75.50;;;;;;4137544;28;20044;-87
2023/01/22 04:03:27;;;;;;;4.65;2.22;;;0.00;75.50;;;;;;4158177;28;20033;-88
2023/01/22 04:05:27;;;;;;;5.05;2.80;;;0.00;75.60;;;;;;4151293;28;20029;-87
2023/01/22 04:07:28;;;;;;;8.25;2.50;;;0.00;75.70;;;;;;4155989;28;20512;-88
2023/01/22 04:09:29;;;;;;;3.05;1.90;;;0.00;75.70;;;;;;4120883;28;20110;-88
2023/01/22 04:11:29;;;;;;;5.88;2.30;;;0.00;75.60;;;;;;4127816;28;20030;-87
2023/01/22 04:13:32;;;;;;;11.05;2.92;;;0.00;75.60;;;;;;4153614;28;20017;-86
2023/01/22 04:15:33;;;;;;;5.80;2.35;;;0.00;75.70;;;;;;4152691;28;20030;-87
2023/01/22 04:17:34;;;;;;;4.10;2.13;;;0.00;75.80;;;;;;4156751;28;20381;-88
2023/01/22 04:19:34;;;;;;;3.22;2.08;;;0.00;75.70;;;;;;4119660;28;20027;-87
2023/01/22 04:21:35;;;;;;;7.45;2.38;;;0.00;75.60;;;;;;4156736;28;20068;-88
2023/01/22 04:23:36;;;;;;;6.00;2.47;;;0.00;75.50;;;;;;4139885;28;20430;-88
2023/01/22 04:25:36;;;;;;;4.95;2.10;;;0.00;75.50;;;;;;4119104;28;20026;-87
2023/01/22 04:27:37;;;;;;;6.80;2.85;;;0.10;75.60;;;;;;4152471;28;20030;-87
2023/01/22 04:29:38;;;;;;;3.83;2.53;;;0.10;75.60;;;;;;4132063;28;20085;-87
2023/01/22 04:31:38;;;;;;;6.93;2.42;;;0.10;75.60;;;;;;4143103;28;20606;-88
2023/01/22 04:33:39;;;;;;;5.15;2.60;;;0.10;75.90;;;;;;4137970;28;20037;-87
2023/01/22 04:35:41;;;;;;;5.75;2.88;;;0.10;75.90;;;;;;4143538;28;20048;-87
2023/01/22 04:38:03;;;;;;;6.80;2.80;;;0.10;75.90;;;;;;4153856;28;20026;-86
2023/01/22 04:40:24;;;;;;;7.35;2.67;;;0.10;75.90;;;;;;4137335;28;20146;-87
2023/01/22 04:42:45;;;;;;;6.78;2.50;;;0.10;76.00;;;;;;4157444;28;20064;-87
2023/01/22 04:45:07;;;;;;;7.43;2.72;;;0.10;75.90;;;;;;4161302;28;20037;-88
2023/01/22 04:47:28;;;;;;;4.53;2.60;;;0.10;76.10;;;;;;4154913;28;20124;-88
2023/01/22 04:49:49;;;;;;;5.15;2.88;;;0.10;76.00;;;;;;4132146;28;20125;-87
2023/01/22 04:52:09;;;;;;;6.43;3.17;;;0.10;76.00;;;;;;4143830;28;20041;-88
2023/01/22 04:54:30;;;;;;;9.68;2.95;;;0.10;76.00;;;;;;4130539;28;20030;-87
2023/01/22 04:56:52;;;;;;;5.22;2.88;;;0.10;75.90;;;;;;4132431;28;20038;-87
2023/01/22 04:59:13;;;;;;;3.80;2.88;;;0.10;75.60;;;;;;4147502;28;20114;-88
2023/01/22 05:01:33;;;;;;;5.20;2.97;;;0.10;75.40;;;;;;4153550;28;20040;-88
2023/01/22 05:03:54;;;;;;;6.70;3.58;;;0.10;75.30;;;;;;4129603;28;20726;-87
2023/01/22 05:05:55;;;;;;;3.92;2.70;;;0.00;75.30;;;;;;4154495;28;20025;-86
2023/01/22 05:07:55;;;;;;;8.38;3.42;;;0.00;75.50;;;;;;4138559;28;20038;-87
2023/01/22 05:09:56;;;;;;;10.15;3.45;;;0.00;75.50;;;;;;4127844;28;20112;-87
2023/01/22 05:11:57;;;;;;;8.27;3.78;;;0.10;75.60;;;;;;4137758;28;20040;-87
2023/01/22 05:13:57;;;;;;;5.20;3.70;;;0.10;75.50;;;;;;4140361;28;20046;-86
2023/01/22 05:15:58;;;;;;;7.65;4.18;;;0.00;75.60;;;;;;4146630;28;20424;-87
2023/01/22 05:17:59;;;;;;;7.65;3.78;;;0.00;75.50;;;;;;4140793;28;20032;-88
2023/01/22 05:20:00;;;;;;;5.50;3.50;;;0.00;75.60;;;;;;4118382;28;20418;-89
2023/01/22 05:22:01;;;;;;;7.55;4.35;;;0.00;75.50;;;;;;4155689;28;20021;-86
2023/01/22 05:24:01;;;;;;;8.32;4.07;;;0.00;75.40;;;;;;4156791;28;20086;-87
2023/01/22 05:26:02;;;;;;;6.85;4.18;;;0.00;75.50;;;;;;4128207;28;20030;-86
2023/01/22 05:28:03;;;;;;;7.28;4.28;;;0.00;75.70;;;;;;4153769;28;20441;-87
2023/01/22 05:30:05;;;;;;;8.60;4.20;;;0.00;75.70;;;;;;4130109;28;20030;-87
2023/01/22 05:32:07;;;;;;;7.28;4.40;;;0.00;75.60;;;;;;4128472;28;20592;-87
2023/01/22 05:34:07;;;;;;;8.02;4.82;;;0.00;75.50;;;;;;4134654;28;20486;-86
2023/01/22 05:36:09;;;;;;;7.47;4.57;;;0.00;75.40;;;;;;4138287;28;20041;-88
2023/01/22 05:38:10;;;;;;;6.97;4.13;;;0.00;75.20;;;;;;4154787;28;20088;-87
2023/01/22 05:40:11;;;;;;;7.63;4.80;;;0.00;75.30;;;;;;4130400;28;20629;-86
2023/01/22 05:42:14;;;;;;;8.00;4.80;;;0.00;75.20;;;;;;4147927;28;20033;-86
2023/01/22 05:44:14;;;;;;;8.82;4.80;;;0.10;75.40;;;;;;4128109;28;20031;-87
2023/01/22 05:46:15;;;;;;;7.72;5.22;;;0.00;75.30;;;;;;4150923;28;20037;-87
2023/01/22 05:48:16;;;;;;;6.30;4.68;;;-0.10;75.30;;;;;;4132841;28;21856;-87
2023/01/22 05:50:16;;;;;;;8.73;5.00;;;0.00;75.50;;;;;;4153347;28;20076;-87
2023/01/22 05:52:17;;;;;;;7.68;4.88;;;-0.10;75.30;;;;;;4118744;28;20554;-87
2023/01/22 05:54:18;;;;;;;8.95;4.93;;;0.00;75.40;;;;;;4130518;28;20046;-87
2023/01/22 05:56:19;;;;;;;8.13;5.20;;;-0.10;75.20;;;;;;4157540;28;20695;-87
2023/01/22 05:58:19;;;;;;;8.57;4.78;;;-0.10;75.30;;;;;;4122251;28;20030;-87
2023/01/22 06:00:20;;;;;;;9.02;4.97;;;-0.10;75.10;;;;;;4158641;28;20059;-87
2023/01/22 06:02:21;;;;;;;7.65;4.70;;;-0.10;75.20;;;;;;4142931;28;20104;-87
2023/01/22 06:04:22;;;;;;;7.30;4.82;;;-0.20;75.10;;;;;;4141293;28;20014;-87
2023/01/22 06:06:22;;;;;;;8.27;5.07;;;-0.20;75.00;;;;;;4139587;28;20076;-87
2023/01/22 06:08:23;;;;;;;7.05;4.90;;;-0.20;74.90;;;;;;4140785;28;20056;-87
2023/01/22 06:10:24;;;;;;;8.82;5.07;;;-0.10;75.00;;;;;;4137747;28;20030;-87
2023/01/22 06:12:25;;;;;;;7.20;4.78;;;-0.20;75.00;;;;;;4156605;28;20120;-87
2023/01/22 06:14:25;;;;;;;7.97;5.05;;;-0.20;75.00;;;;;;4124193;28;20479;-86
2023/01/22 06:16:26;;;;;;;8.63;5.30;;;-0.30;74.80;;;;;;4135465;28;20110;-86
2023/01/22 06:18:27;;;;;;;8.50;4.90;;;-0.30;74.70;;;;;;4158874;28;20026;-87
2023/01/22 06:20:27;;;;;;;7.65;5.10;;;-0.30;75.00;;;;;;4135312;28;20109;-87
2023/01/22 06:22:28;;;;;;;9.25;5.18;;;-0.30;74.90;;;;;;4136702;28;20038;-86
2023/01/22 06:24:29;;;;;;;11.07;4.97;;;-0.30;74.90;;;;;;4157234;28;20493;-85
2023/01/22 06:26:29;;;;;;;9.68;4.85;;;-0.30;75.00;;;;;;4155620;28;20095;-87
2023/01/22 06:28:30;;;;;;;7.60;5.35;;;-0.30;75.10;;;;;;4155893;28;20048;-85
2023/01/22 06:30:31;;;;;;;7.03;4.97;;;-0.40;75.10;;;;;;4130428;28;20092;-86
2023/01/22 06:32:32;;;;;;;8.88;5.43;;;-0.30;75.30;;;;;;4152839;28;20075;-87
2023/01/22 06:34:32;;;;;;;11.30;5.35;;;-0.30;75.30;;;;;;4133732;28;20034;-86
2023/01/22 06:36:33;;;;;;;9.32;5.32;;;-0.30;75.30;;;;;;4147216;28;20112;-85
2023/01/22 06:38:54;;;;;;;10.20;5.97;;;-0.20;75.40;;;;;;4141157;28;20036;-86
2023/01/22 06:40:56;;;;;;;10.00;5.50;;;-0.40;75.30;;;;;;4150164;28;20165;-86
2023/01/22 06:43:17;;;;;;;8.90;5.35;;;-0.40;75.30;;;;;;4137242;28;20499;-87
2023/01/22 06:45:38;;;;;;;7.93;5.45;;;-0.30;75.40;;;;;;4154869;28;20041;-87
2023/01/22 06:47:43;;;;;;;8.90;5.35;;;-0.30;75.50;;;;;;4137781;28;20045;-86
2023/01/22 06:50:04;;;;;;;7.45;4.90;;;-0.40;75.30;;;;;;4147307;28;20037;-84
2023/01/22 06:52:24;;;;;;;6.75;4.45;;;-0.40;75.20;;;;;;4154009;28;20119;-88
2023/01/22 06:54:27;;;;;;;7.88;4.85;;;-0.30;75.20;;;;;;4137237;28;20033;-86
2023/01/22 06:56:47;;;;;;;7.20;3.78;;;-0.40;75.20;;;;;;4158932;28;20053;-88
2023/01/22 06:59:08;;;;;;;6.57;4.25;;;-0.40;75.20;;;;;;4160476;28;20041;-86
2023/01/22 07:01:28;;;;;;;7.10;5.00;;;-0.40;75.20;;;;;;4150521;28;20033;-87
2023/01/22 07:03:49;;;;;;;7.88;4.75;;;-0.40;75.30;;;;;;4147421;28;20432;-88
2023/01/22 07:06:10;;;;;;;5.43;4.00;;;-0.50;75.50;;;;;;4148705;28;20076;-87
2023/01/22 07:08:32;;;;;;;7.05;4.10;;;-0.30;75.60;;;;;;4136328;28;20034;-87
2023/01/22 07:10:52;;;;;;;7.05;4.10;;;-0.40;75.50;;;;;;4134303;28;20574;-87
2023/01/22 07:13:14;;;;;;;6.70;4.05;;;-0.40;75.50;;;;;;4136031;28;20034;-88
2023/01/22 07:15:35;;;;;;;5.82;4.28;;;-0.40;75.40;;;;;;4124076;28;20468;-88
2023/01/22 07:17:56;;;;;;;10.23;4.70;;;-0.50;75.50;;;;;;4149621;28;20044;-88
2023/01/22 07:20:17;;;;;;;6.45;4.13;;;-0.40;75.60;;;;;;4130294;28;20100;-88
2023/01/22 07:22:37;;;;;;;6.45;4.45;;;-0.40;75.70;;;;;;4149911;28;20041;-88
2023/01/22 07:24:58;;;;;;;7.15;4.55;;;-0.40;75.60;;;;;;4141120;28;20042;-88
2023/01/22 07:27:18;;;;;;;7.03;4.07;;;-0.40;75.60;;;;;;4152715;28;20171;-87
2023/01/22 07:29:39;;;;;;;6.47;3.90;;;-0.40;75.60;;;;;;4132636;28;20033;-87
2023/01/22 07:32:00;;;;;;;8.80;4.32;;;-0.40;75.50;;;;;;4129502;28;20422;-88
2023/01/22 07:34:21;;;;;;;7.25;4.45;;;-0.40;75.50;;;;;;4159601;28;20044;-87
2023/01/22 07:36:41;;;;;;;8.40;4.45;;;-0.40;75.40;;;;;;4155231;28;20037;-87
2023/01/22 07:39:04;;;;;;;6.90;4.10;;;-0.40;75.40;;;;;;4147582;28;20454;-87
2023/01/22 07:41:25;;;;;;;7.60;4.40;;;-0.50;75.60;;;;;;4151043;28;21881;-87
2023/01/22 07:43:48;;;;;;;7.47;4.13;;;-0.50;75.60;;;;;;4153171;28;20761;-87
2023/01/22 07:46:08;;;;;;;8.95;4.45;;;-0.50;75.70;;;;;;4131337;28;20125;-87
2023/01/22 07:48:29;;;;;;;6.10;4.43;;;-0.50;75.70;;;;;;4144584;28;20033;-87
2023/01/22 07:50:50;;;;;;;6.50;4.20;;;-0.50;75.70;;;;;;4148105;28;20743;-87
2023/01/22 07:53:10;;;;;;;13.05;4.88;;;-0.50;75.80;;;;;;4134901;28;20549;-86
2023/01/22 07:55:31;;;;;;;6.88;4.28;;;-0.50;75.80;;;;;;4133115;28;20112;-87
2023/01/22 07:57:59;;;;;;;6.07;4.45;;;-0.50;76.10;;;;;;4130391;28;20766;-87
2023/01/22 08:00:20;;;;;;;11.18;5.22;;;-0.50;76.00;;;;;;4134861;28;20516;-87
2023/01/22 08:02:42;;;;;;;10.43;5.10;;;-0.50;76.20;;;;;;4134290;28;20488;-88
2023/01/22 08:05:03;;;;;;;6.68;4.63;;;-0.50;76.20;;;;;;4153048;28;20029;-88
2023/01/22 08:07:24;;;;;;;7.47;4.47;;;-0.50;76.20;;;;;;4145255;28;20034;-87
2023/01/22 08:09:44;;;;;;;8.05;4.65;;;-0.50;76.20;;;;;;4151113;28;20881;-89
2023/01/22 08:12:05;;;;;;;7.72;5.05;;;-0.50;76.20;;;;;;4145394;28;22018;-88
2023/01/22 08:14:26;;;;;;;9.18;4.72;;;-0.50;76.20;;;;;;4136432;28;20487;-88
2023/01/22 08:16:46;;;;;;;9.95;4.43;;;-0.50;76.40;;;;;;4132074;28;20640;-86
2023/01/22 08:19:08;;;;;;;7.63;4.65;;;-0.50;76.50;;;;;;4147008;28;20523;-88
2023/01/22 08:21:29;;;;;;;9.05;5.05;;;-0.50;76.60;;;;;;4136512;28;20395;-88
2023/01/22 08:23:49;;;;;;;8.23;5.10;;;-0.40;76.70;;;;;;4151251;28;20482;-87
2023/01/22 08:26:08;;;;;;;8.10;4.30;;;-0.50;76.70;;;;;;4133004;28;20393;-87
2023/01/22 08:28:28;;;;;;;8.45;5.13;;;-0.40;76.80;;;;;;4145049;28;20064;-88
2023/01/22 08:30:48;;;;;;;9.63;4.85;;;-0.40;76.70;;;;;;4151124;28;20037;-87
2023/01/22 08:33:09;;;;;;;10.85;4.88;;;-0.40;76.70;;;;;;4140168;28;20041;-87
2023/01/22 08:35:31;;;;;;;12.85;5.55;;;-0.40;76.70;;;;;;4149496;28;20052;-87
2023/01/22 08:37:50;;;;;;;13.52;6.97;;;-0.40;76.70;;;;;;4151418;28;20052;-87
2023/01/22 08:40:10;;;;;;;20.73;9.48;;;-0.40;76.50;;;;;;4151885;28;21389;-88
2023/01/22 08:42:30;;;;;;;8.82;4.85;;;-0.40;76.60;;;;;;4137307;28;20049;-88
2023/01/22 08:44:48;;;;;;;7.78;3.90;;;-0.40;76.60;;;;;;4151782;28;20152;-87
2023/01/22 08:47:10;;;;;;;6.05;4.10;;;-0.40;76.80;;;;;;4130783;28;20518;-87
2023/01/22 08:49:29;;;;;;;4.72;3.25;;;-0.40;76.70;;;;;;4147408;28;20048;-88
2023/01/22 08:51:49;;;;;;;8.10;3.90;;;-0.40;76.50;;;;;;4148022;28;20450;-88
2023/01/22 08:54:08;;;;;;;8.30;4.30;;;-0.40;76.40;;;;;;4129743;28;20089;-87
2023/01/22 08:56:27;;;;;;;5.13;3.45;;;-0.40;76.30;;;;;;4148321;28;20040;-87
2023/01/22 08:58:50;;;;;;;5.13;3.13;;;-0.40;76.00;;;;;;4136012;28;20036;-88
2023/01/22 09:01:15;;;;;;;5.80;3.40;;;-0.40;76.20;;;;;;4133673;28;20556;-88
2023/01/22 09:03:34;;;;;;;8.77;3.65;;;-0.30;76.40;;;;;;4130686;28;20458;-88
2023/01/22 09:05:53;;;;;;;9.32;4.13;;;-0.30;76.40;;;;;;4143111;28;20072;-89
2023/01/22 09:08:13;;;;;;;7.30;4.07;;;-0.20;76.60;;;;;;4129297;28;20081;-88
2023/01/22 09:10:33;;;;;;;6.90;3.72;;;-0.30;76.50;;;;;;4130861;28;20589;-91
2023/01/22 09:12:52;;;;;;;7.95;3.85;;;-0.30;77.10;;;;;;4153311;28;20035;-89
2023/01/22 09:15:11;;;;;;;8.10;6.13;;;-0.30;76.20;;;;;;4132258;28;20045;-88
2023/01/22 09:17:31;;;;;;;5.75;3.50;;;-0.30;76.20;;;;;;4146850;28;20029;-88
2023/01/22 09:19:50;;;;;;;6.38;3.67;;;-0.20;76.10;;;;;;4136703;28;20324;-88
2023/01/22 09:22:09;;;;;;;8.23;3.75;;;-0.20;76.20;;;;;;4136095;28;20093;-89
2023/01/22 09:24:28;;;;;;;6.43;3.67;;;-0.20;76.10;;;;;;4145324;28;20536;-88
2023/01/22 09:26:47;;;;;;;5.40;3.30;;;-0.10;76.20;;;;;;4134243;28;20045;-89
2023/01/22 09:29:06;;;;;;;5.32;3.08;;;-0.20;75.90;;;;;;4134793;28;20049;-87
2023/01/22 09:31:26;;;;;;;6.05;2.70;;;-0.10;75.80;;;;;;4151881;28;20037;-89
2023/01/22 09:33:45;;;;;;;4.88;2.60;;;-0.20;75.40;;;;;;4140115;28;20080;-89
2023/01/22 09:36:10;;;;;;;6.85;3.00;;;-0.10;75.20;;;;;;4138695;28;20053;-89
2023/01/22 09:38:29;;;;;;;5.63;3.10;;;-0.10;75.10;;;;;;4131823;28;20683;-88
2023/01/22 09:40:56;;;;;;;5.75;2.80;;;-0.10;75.00;;;;;;4153007;28;20045;-89
2023/01/22 09:43:30;;;;;;;9.55;3.40;;;-0.20;75.20;;;;;;4149114;28;20688;-88
2023/01/22 09:45:54;;;;;;;5.65;2.97;;;-0.10;76.20;;;;;;4132472;28;20123;-89
2023/01/22 09:48:17;;;;;;;11.00;3.97;;;-0.10;75.80;;;;;;4124247;28;20764;-88
2023/01/22 09:50:36;;;;;;;7.43;3.30;;;-0.20;76.00;;;;;;4133323;28;20467;-89
2023/01/22 09:53:00;;;;;;;5.75;2.83;;;-0.20;76.40;;;;;;4137275;28;20832;-88
2023/01/22 09:55:23;;;;;;;6.68;3.17;;;-0.10;76.60;;;;;;4150565;28;20122;-88
2023/01/22 09:57:45;;;;;;;6.32;3.13;;;-0.10;76.80;;;;;;4148403;28;20040;-88
2023/01/22 10:00:20;;;;;;;8.57;3.00;;;-0.10;76.80;;;;;;4127930;28;20053;-87
2023/01/22 10:02:45;;;;;;;10.60;3.50;;;-0.10;76.70;;;;;;4154594;28;20048;-87
2023/01/22 10:05:31;;;;;;;9.52;3.50;;;0.00;76.70;;;;;;4154613;28;20045;-87
2023/01/22 10:08:19;;;;;;;6.68;2.72;;;-0.10;76.90;;;;;;4128043;28;20049;-88
2023/01/22 10:10:38;;;;;;;4.60;2.75;;;-0.10;76.90;;;;;;4145309;28;20123;-88
2023/01/22 10:13:00;;;;;;;7.55;2.88;;;0.00;76.90;;;;;;4151211;28;20040;-87
2023/01/22 10:15:22;;;;;;;4.88;2.92;;;0.00;76.80;;;;;;4138512;28;20078;-87
2023/01/22 10:17:42;;;;;;;8.05;2.90;;;0.10;76.70;;;;;;4127996;28;20184;-88
2023/01/22 10:20:05;;;;;;;7.05;3.15;;;0.10;76.70;;;;;;4143157;28;20140;-88
2023/01/22 10:22:25;;;;;;;13.05;3.95;;;0.20;76.80;;;;;;4143970;28;20076;-88
2023/01/22 10:24:45;;;;;;;7.18;3.40;;;0.20;77.00;;;;;;4153821;28;20040;-88
2023/01/22 10:27:15;;;;;;;7.88;3.20;;;0.10;76.90;;;;;;4153805;28;20091;-88
2023/01/22 10:29:36;;;;;;;9.10;3.28;;;0.20;76.80;;;;;;4146638;28;20068;-88
2023/01/22 10:32:15;;;;;;;6.63;3.10;;;0.20;76.80;;;;;;4142893;28;20092;-89
2023/01/22 10:34:36;;;;;;;6.03;2.80;;;0.20;76.70;;;;;;4134277;28;20141;-90
2023/01/22 10:37:17;;;;;;;6.97;3.40;;;0.30;77.50;;;;;;4136698;28;20068;-88
2023/01/22 10:39:42;;;;;;;9.25;3.47;;;0.30;76.60;;;;;;4126435;28;20048;-88
2023/01/22 10:42:01;;;;;;;6.18;2.92;;;0.40;76.60;;;;;;4145303;28;20131;-89
2023/01/22 10:44:22;;;;;;;8.25;3.47;;;0.40;76.50;;;;;;4149240;28;20032;-88
2023/01/22 10:46:41;;;;;;;4.65;2.63;;;0.40;76.40;;;;;;4150363;28;20539;-88
2023/01/22 10:49:04;;;;;;;5.25;2.72;;;0.40;76.00;;;;;;4131825;28;20737;-88
2023/01/22 10:51:31;;;;;;;5.50;3.03;;;0.50;76.10;;;;;;4155514;28;20041;-87
2023/01/22 10:53:56;;;;;;;6.30;3.17;;;0.50;76.00;;;;;;4143046;28;20401;-89
2023/01/22 10:56:33;;;;;;;6.40;2.95;;;0.50;75.90;;;;;;4142669;28;20064;-88
2023/01/22 10:58:54;;;;;;;8.43;3.60;;;0.60;75.80;;;;;;4144598;28;20118;-89
2023/01/22 11:01:47;;;;;;;5.07;3.20;;;0.60;75.80;;;;;;4142674;28;20148;-88
2023/01/22 11:04:12;;;;;;;9.55;3.67;;;0.60;75.60;;;;;;4125558;28;20422;-89
2023/01/22 11:06:40;;;;;;;9.23;3.47;;;0.60;75.70;;;;;;4153429;28;20548;-89
2023/01/22 11:09:26;;;;;;;8.88;3.55;;;0.60;75.60;;;;;;4129988;28;20605;-89
2023/01/22 11:12:12;;;;;;;7.85;3.20;;;0.70;75.70;;;;;;4141687;28;20124;-90
2023/01/22 11:14:34;;;;;;;6.68;3.30;;;0.60;75.50;;;;;;4155771;28;20041;-89
2023/01/22 11:16:59;;;;;;;8.10;3.55;;;0.70;75.50;;;;;;4155496;28;20060;-89
2023/01/22 11:19:24;;;;;;;7.68;3.92;;;0.70;75.70;;;;;;4142415;28;20600;-89
2023/01/22 11:21:53;;;;;;;7.15;3.80;;;0.70;75.60;;;;;;4138519;28;20118;-89
2023/01/22 11:24:23;;;;;;;4.63;3.25;;;0.70;75.60;;;;;;4138750;28;20040;-89
2023/01/22 11:26:48;;;;;;;7.13;3.05;;;0.70;75.50;;;;;;4153376;28;20080;-90
2023/01/22 11:29:23;;;;;;;8.05;3.20;;;0.70;75.50;;;;;;4139865;28;20552;-89
2023/01/22 11:31:51;;;;;;;10.60;3.60;;;0.80;75.60;;;;;;4138392;28;20097;-89
2023/01/22 11:34:32;;;;;;;6.65;3.25;;;0.70;75.40;;;;;;4159286;28;20083;-89
2023/01/22 11:37:06;;;;;;;7.70;3.50;;;0.80;75.50;;;;;;4139466;28;20079;-89
2023/01/22 11:39:46;;;;;;;9.25;3.08;;;0.80;75.60;;;;;;4144175;28;20061;-90
2023/01/22 11:42:15;;;;;;;6.07;3.55;;;0.80;75.80;;;;;;4140402;28;20149;-89
2023/01/22 11:45:04;;;;;;;7.50;3.53;;;0.80;75.90;;;;;;4156314;28;20571;-89
2023/01/22 11:48:03;;;;;;;9.13;3.50;;;0.80;76.00;;;;;;4157275;28;20579;-89
2023/01/22 11:50:31;;;;;;;5.75;2.83;;;0.80;76.10;;;;;;4139024;28;20050;-89